Hauptseite
METAR-TAF:

METAR-TAF

Flughäfen :

Flughafen Navoiy

Navoiy, Usbekistan

Breite: 40-07-04N, Länge: 065-10-30E, Höhe: 348 m

Beobachtung

Neuester Wetterbericht von vor 27 Minuten, um 14:00 UTC
Wind 8 kt aus Nord
Temperatur 37°C
Luftfeuchtigkeit 16%
Luftdruck 1002 hPa
Sichtweite 10 km oder mehr

METAR: UTSA 231400Z 36008KT 9999 NSC 37/07 Q1002 R07/CLRD70 NOSIG

Zeit: 19:27 (14:27 UTC)

Prognose

Neuester Wetterbericht von vor 3 Stunden und 26 Minuten, um 11:01 UTC
Gültige Prognose vom 23 um 12 UTC bis 24 um 12 UTC
Wind 3 kt aus unterschiedlichen Richtungen
Sichtweite: 7000 m
Zeitweise
vom 23 um 12 UTC bis 23 um 23 UTC
Wind 15 kt aus Nord/Nordost

TAF: UTSA 231101Z 2312/2412 VRB03KT 7000 NSC TX40/2411Z TN23/2400Z TEMPO 2312/2323 03015KT

Wetterbeobachtungen und Prognosen von mehr als 4000 Flughäfen (METAR und TAF Bericht).

Die verfügbaren Stationen werden durch gelbe und rote Markierungen auf der Karte dargestellt.

Führen Sie die Maus auf sie, um den Namen der Station zu sehen.

Darauf klicken, um die Beobachtung von Wetterbeobachtungen und Prognosen zu sehen.

Um die Karte zu ändern : klicken Sie auf den grünen Tasten mit einem schwarzen Kreuz Zum Vergrößern, auf den grünen Button mit einem Gedankenstrich zu verkleinern, oder auf die grünen Pfeile für benachbarte Karten.


METAR-TAF: